sensor_id;sensor_type;location;lat;lon;timestamp;P1;durP1;ratioP1;P2;durP2;ratioP2
71715;SDS011;59568;52.128;5.434;2023-03-01T00:01:11;10.37;;;5.83;;
71715;SDS011;59568;52.128;5.434;2023-03-01T00:03:39;11.40;;;6.25;;
71715;SDS011;59568;52.128;5.434;2023-03-01T00:06:06;12.18;;;6.68;;
71715;SDS011;59568;52.128;5.434;2023-03-01T00:08:33;15.27;;;6.13;;
71715;SDS011;59568;52.128;5.434;2023-03-01T00:11:04;10.07;;;6.20;;
71715;SDS011;59568;52.128;5.434;2023-03-01T00:13:38;14.77;;;6.70;;
71715;SDS011;59568;52.128;5.434;2023-03-01T00:16:06;14.20;;;6.78;;
71715;SDS011;59568;52.128;5.434;2023-03-01T00:18:35;11.48;;;5.68;;
71715;SDS011;59568;52.128;5.434;2023-03-01T00:21:02;12.50;;;6.43;;
71715;SDS011;59568;52.128;5.434;2023-03-01T00:23:29;13.05;;;7.20;;
71715;SDS011;59568;52.128;5.434;2023-03-01T00:25:55;10.87;;;6.10;;
71715;SDS011;59568;52.128;5.434;2023-03-01T00:28:22;13.73;;;6.53;;
71715;SDS011;59568;52.128;5.434;2023-03-01T00:30:49;9.02;;;5.85;;
71715;SDS011;59568;52.128;5.434;2023-03-01T00:33:16;9.95;;;5.65;;
71715;SDS011;59568;52.128;5.434;2023-03-01T00:35:43;13.75;;;6.65;;
71715;SDS011;59568;52.128;5.434;2023-03-01T00:38:10;11.20;;;6.57;;
71715;SDS011;59568;52.128;5.434;2023-03-01T00:40:36;11.90;;;6.60;;
71715;SDS011;59568;52.128;5.434;2023-03-01T00:43:04;12.70;;;6.93;;
71715;SDS011;59568;52.128;5.434;2023-03-01T00:45:32;16.40;;;6.85;;
71715;SDS011;59568;52.128;5.434;2023-03-01T00:47:59;11.35;;;6.70;;
71715;SDS011;59568;52.128;5.434;2023-03-01T00:50:26;9.80;;;6.03;;
71715;SDS011;59568;52.128;5.434;2023-03-01T00:52:54;15.20;;;7.18;;
71715;SDS011;59568;52.128;5.434;2023-03-01T00:55:21;11.65;;;6.22;;
71715;SDS011;59568;52.128;5.434;2023-03-01T00:57:48;13.23;;;6.95;;
71715;SDS011;59568;52.128;5.434;2023-03-01T01:00:15;13.57;;;7.80;;
71715;SDS011;59568;52.128;5.434;2023-03-01T01:02:42;16.70;;;7.17;;
71715;SDS011;59568;52.128;5.434;2023-03-01T01:05:09;12.82;;;7.03;;
71715;SDS011;59568;52.128;5.434;2023-03-01T01:07:36;13.77;;;7.38;;
71715;SDS011;59568;52.128;5.434;2023-03-01T01:10:04;11.80;;;6.97;;
71715;SDS011;59568;52.128;5.434;2023-03-01T01:12:32;14.38;;;7.78;;
71715;SDS011;59568;52.128;5.434;2023-03-01T01:14:59;11.80;;;6.97;;
71715;SDS011;59568;52.128;5.434;2023-03-01T01:17:25;10.82;;;6.45;;
71715;SDS011;59568;52.128;5.434;2023-03-01T01:19:52;9.57;;;6.45;;
71715;SDS011;59568;52.128;5.434;2023-03-01T01:22:19;10.63;;;6.28;;
71715;SDS011;59568;52.128;5.434;2023-03-01T01:24:46;20.23;;;7.72;;
71715;SDS011;59568;52.128;5.434;2023-03-01T01:27:26;13.63;;;6.83;;
71715;SDS011;59568;52.128;5.434;2023-03-01T01:29:53;13.10;;;7.05;;
71715;SDS011;59568;52.128;5.434;2023-03-01T01:32:20;15.00;;;7.95;;
71715;SDS011;59568;52.128;5.434;2023-03-01T01:35:00;12.18;;;6.90;;
71715;SDS011;59568;52.128;5.434;2023-03-01T01:37:27;11.23;;;6.88;;
71715;SDS011;59568;52.128;5.434;2023-03-01T01:39:58;10.30;;;6.07;;
71715;SDS011;59568;52.128;5.434;2023-03-01T01:42:25;12.93;;;7.30;;
71715;SDS011;59568;52.128;5.434;2023-03-01T01:48:03;11.65;;;7.75;;
71715;SDS011;59568;52.128;5.434;2023-03-01T01:50:33;14.10;;;7.25;;
71715;SDS011;59568;52.128;5.434;2023-03-01T01:53:15;13.03;;;5.83;;
71715;SDS011;59568;52.128;5.434;2023-03-01T01:55:45;12.93;;;6.55;;
71715;SDS011;59568;52.128;5.434;2023-03-01T01:58:15;12.35;;;6.90;;
71715;SDS011;59568;52.128;5.434;2023-03-01T02:00:45;14.63;;;7.53;;
71715;SDS011;59568;52.128;5.434;2023-03-01T02:03:13;13.30;;;7.07;;
71715;SDS011;59568;52.128;5.434;2023-03-01T02:08:30;13.27;;;7.05;;
71715;SDS011;59568;52.128;5.434;2023-03-01T02:10:59;12.27;;;7.97;;
71715;SDS011;59568;52.128;5.434;2023-03-01T02:13:27;13.05;;;7.43;;
71715;SDS011;59568;52.128;5.434;2023-03-01T02:15:54;17.90;;;8.27;;
71715;SDS011;59568;52.128;5.434;2023-03-01T02:18:21;14.50;;;8.20;;
71715;SDS011;59568;52.128;5.434;2023-03-01T02:21:10;14.50;;;8.10;;
71715;SDS011;59568;52.128;5.434;2023-03-01T02:23:57;15.93;;;7.68;;
71715;SDS011;59568;52.128;5.434;2023-03-01T02:26:34;19.27;;;7.35;;
71715;SDS011;59568;52.128;5.434;2023-03-01T02:29:07;13.00;;;8.02;;
71715;SDS011;59568;52.128;5.434;2023-03-01T02:31:34;15.20;;;7.80;;
71715;SDS011;59568;52.128;5.434;2023-03-01T02:34:14;13.05;;;7.55;;
71715;SDS011;59568;52.128;5.434;2023-03-01T02:37:05;12.13;;;7.50;;
71715;SDS011;59568;52.128;5.434;2023-03-01T02:39:46;15.68;;;7.72;;
71715;SDS011;59568;52.128;5.434;2023-03-01T02:42:19;14.82;;;8.18;;
71715;SDS011;59568;52.128;5.434;2023-03-01T02:44:52;14.03;;;7.00;;
71715;SDS011;59568;52.128;5.434;2023-03-01T02:47:19;11.40;;;6.75;;
71715;SDS011;59568;52.128;5.434;2023-03-01T02:49:46;13.27;;;7.47;;
71715;SDS011;59568;52.128;5.434;2023-03-01T02:55:00;18.65;;;8.45;;
71715;SDS011;59568;52.128;5.434;2023-03-01T02:57:31;16.50;;;7.80;;
71715;SDS011;59568;52.128;5.434;2023-03-01T03:00:04;12.65;;;6.43;;
71715;SDS011;59568;52.128;5.434;2023-03-01T03:02:34;16.23;;;8.65;;
71715;SDS011;59568;52.128;5.434;2023-03-01T03:05:03;17.63;;;8.15;;
71715;SDS011;59568;52.128;5.434;2023-03-01T03:07:35;13.60;;;7.30;;
71715;SDS011;59568;52.128;5.434;2023-03-01T03:10:05;15.90;;;8.13;;
71715;SDS011;59568;52.128;5.434;2023-03-01T03:12:33;14.00;;;8.25;;
71715;SDS011;59568;52.128;5.434;2023-03-01T03:15:00;11.68;;;7.43;;
71715;SDS011;59568;52.128;5.434;2023-03-01T03:17:26;13.27;;;7.60;;
71715;SDS011;59568;52.128;5.434;2023-03-01T03:19:53;14.10;;;7.65;;
71715;SDS011;59568;52.128;5.434;2023-03-01T03:22:20;13.00;;;7.17;;
71715;SDS011;59568;52.128;5.434;2023-03-01T03:24:46;14.68;;;7.65;;
71715;SDS011;59568;52.128;5.434;2023-03-01T03:27:13;13.07;;;7.82;;
71715;SDS011;59568;52.128;5.434;2023-03-01T03:29:41;14.98;;;8.35;;
71715;SDS011;59568;52.128;5.434;2023-03-01T03:32:08;14.55;;;7.35;;
71715;SDS011;59568;52.128;5.434;2023-03-01T03:34:34;15.13;;;6.57;;
71715;SDS011;59568;52.128;5.434;2023-03-01T03:37:01;13.35;;;6.88;;
71715;SDS011;59568;52.128;5.434;2023-03-01T03:39:28;13.73;;;7.43;;
71715;SDS011;59568;52.128;5.434;2023-03-01T03:41:55;13.32;;;7.03;;
71715;SDS011;59568;52.128;5.434;2023-03-01T03:44:21;12.15;;;7.35;;
71715;SDS011;59568;52.128;5.434;2023-03-01T03:46:48;14.37;;;7.87;;
71715;SDS011;59568;52.128;5.434;2023-03-01T03:49:15;12.05;;;7.63;;
71715;SDS011;59568;52.128;5.434;2023-03-01T03:51:42;12.70;;;7.75;;
71715;SDS011;59568;52.128;5.434;2023-03-01T03:54:11;13.93;;;7.43;;
71715;SDS011;59568;52.128;5.434;2023-03-01T03:56:38;15.35;;;8.45;;
71715;SDS011;59568;52.128;5.434;2023-03-01T03:59:19;14.00;;;6.77;;
71715;SDS011;59568;52.128;5.434;2023-03-01T04:01:59;12.43;;;6.88;;
71715;SDS011;59568;52.128;5.434;2023-03-01T04:04:26;14.15;;;7.18;;
71715;SDS011;59568;52.128;5.434;2023-03-01T04:06:53;10.82;;;6.93;;
71715;SDS011;59568;52.128;5.434;2023-03-01T04:09:20;10.98;;;6.68;;
71715;SDS011;59568;52.128;5.434;2023-03-01T04:11:46;13.27;;;7.60;;
71715;SDS011;59568;52.128;5.434;2023-03-01T04:14:13;10.13;;;6.88;;
71715;SDS011;59568;52.128;5.434;2023-03-01T04:16:39;14.95;;;7.93;;
71715;SDS011;59568;52.128;5.434;2023-03-01T04:19:06;14.57;;;7.47;;
71715;SDS011;59568;52.128;5.434;2023-03-01T04:21:32;10.10;;;6.40;;
71715;SDS011;59568;52.128;5.434;2023-03-01T04:23:59;16.30;;;7.47;;
71715;SDS011;59568;52.128;5.434;2023-03-01T04:26:27;12.38;;;6.90;;
71715;SDS011;59568;52.128;5.434;2023-03-01T04:28:54;10.32;;;6.85;;
71715;SDS011;59568;52.128;5.434;2023-03-01T04:31:21;13.60;;;7.35;;
71715;SDS011;59568;52.128;5.434;2023-03-01T04:33:51;11.55;;;6.85;;
71715;SDS011;59568;52.128;5.434;2023-03-01T04:36:25;13.60;;;6.80;;
71715;SDS011;59568;52.128;5.434;2023-03-01T04:38:53;12.85;;;6.70;;
71715;SDS011;59568;52.128;5.434;2023-03-01T04:41:20;11.50;;;6.53;;
71715;SDS011;59568;52.128;5.434;2023-03-01T04:43:48;13.10;;;7.35;;
71715;SDS011;59568;52.128;5.434;2023-03-01T04:46:17;13.07;;;7.35;;
71715;SDS011;59568;52.128;5.434;2023-03-01T04:48:46;13.13;;;6.60;;
71715;SDS011;59568;52.128;5.434;2023-03-01T04:51:13;12.93;;;7.07;;
71715;SDS011;59568;52.128;5.434;2023-03-01T04:53:41;15.25;;;7.40;;
71715;SDS011;59568;52.128;5.434;2023-03-01T04:56:09;10.70;;;6.15;;
71715;SDS011;59568;52.128;5.434;2023-03-01T04:58:37;14.50;;;7.28;;
71715;SDS011;59568;52.128;5.434;2023-03-01T05:01:10;12.97;;;7.10;;
71715;SDS011;59568;52.128;5.434;2023-03-01T05:03:42;12.32;;;6.75;;
71715;SDS011;59568;52.128;5.434;2023-03-01T05:06:10;11.32;;;7.20;;
71715;SDS011;59568;52.128;5.434;2023-03-01T05:08:38;10.35;;;6.15;;
71715;SDS011;59568;52.128;5.434;2023-03-01T05:11:08;11.60;;;6.10;;
71715;SDS011;59568;52.128;5.434;2023-03-01T05:13:38;16.77;;;6.63;;
71715;SDS011;59568;52.128;5.434;2023-03-01T05:16:06;11.73;;;6.43;;
71715;SDS011;59568;52.128;5.434;2023-03-01T05:18:38;15.82;;;7.40;;
71715;SDS011;59568;52.128;5.434;2023-03-01T05:21:10;12.05;;;6.28;;
71715;SDS011;59568;52.128;5.434;2023-03-01T05:23:38;12.93;;;6.28;;
71715;SDS011;59568;52.128;5.434;2023-03-01T05:26:06;11.40;;;7.07;;
71715;SDS011;59568;52.128;5.434;2023-03-01T05:28:47;12.82;;;6.63;;
71715;SDS011;59568;52.128;5.434;2023-03-01T05:31:14;13.13;;;6.90;;
71715;SDS011;59568;52.128;5.434;2023-03-01T05:33:41;9.68;;;6.05;;
71715;SDS011;59568;52.128;5.434;2023-03-01T05:36:09;10.80;;;6.15;;
71715;SDS011;59568;52.128;5.434;2023-03-01T05:38:36;13.50;;;6.27;;
71715;SDS011;59568;52.128;5.434;2023-03-01T05:41:03;12.45;;;6.90;;
71715;SDS011;59568;52.128;5.434;2023-03-01T05:43:31;12.57;;;6.63;;
71715;SDS011;59568;52.128;5.434;2023-03-01T05:46:01;11.98;;;7.00;;
71715;SDS011;59568;52.128;5.434;2023-03-01T05:48:28;12.93;;;6.53;;
71715;SDS011;59568;52.128;5.434;2023-03-01T05:50:55;14.07;;;7.87;;
71715;SDS011;59568;52.128;5.434;2023-03-01T05:53:26;11.98;;;7.18;;
71715;SDS011;59568;52.128;5.434;2023-03-01T05:55:53;13.25;;;7.05;;
71715;SDS011;59568;52.128;5.434;2023-03-01T05:58:19;15.35;;;8.20;;
71715;SDS011;59568;52.128;5.434;2023-03-01T06:00:46;13.05;;;7.22;;
71715;SDS011;59568;52.128;5.434;2023-03-01T06:03:15;12.67;;;7.07;;
71715;SDS011;59568;52.128;5.434;2023-03-01T06:05:43;11.52;;;6.80;;
71715;SDS011;59568;52.128;5.434;2023-03-01T06:08:11;13.77;;;7.50;;
71715;SDS011;59568;52.128;5.434;2023-03-01T06:10:38;13.23;;;7.13;;
71715;SDS011;59568;52.128;5.434;2023-03-01T06:13:05;14.48;;;6.55;;
71715;SDS011;59568;52.128;5.434;2023-03-01T06:15:32;10.57;;;6.37;;
71715;SDS011;59568;52.128;5.434;2023-03-01T06:17:59;14.18;;;6.88;;
71715;SDS011;59568;52.128;5.434;2023-03-01T06:20:26;12.48;;;6.03;;
71715;SDS011;59568;52.128;5.434;2023-03-01T06:22:54;13.07;;;6.70;;
71715;SDS011;59568;52.128;5.434;2023-03-01T06:25:22;12.93;;;6.45;;
71715;SDS011;59568;52.128;5.434;2023-03-01T06:27:50;13.47;;;6.90;;
71715;SDS011;59568;52.128;5.434;2023-03-01T06:30:18;11.73;;;6.43;;
71715;SDS011;59568;52.128;5.434;2023-03-01T06:32:47;10.60;;;6.57;;
71715;SDS011;59568;52.128;5.434;2023-03-01T06:35:15;14.35;;;7.72;;
71715;SDS011;59568;52.128;5.434;2023-03-01T06:37:48;10.20;;;5.90;;
71715;SDS011;59568;52.128;5.434;2023-03-01T06:40:15;11.93;;;7.10;;
71715;SDS011;59568;52.128;5.434;2023-03-01T06:42:42;11.40;;;6.10;;
71715;SDS011;59568;52.128;5.434;2023-03-01T06:45:14;12.35;;;6.07;;
71715;SDS011;59568;52.128;5.434;2023-03-01T06:47:41;11.73;;;7.63;;
71715;SDS011;59568;52.128;5.434;2023-03-01T06:50:08;12.15;;;6.55;;
71715;SDS011;59568;52.128;5.434;2023-03-01T06:52:35;12.97;;;6.63;;
71715;SDS011;59568;52.128;5.434;2023-03-01T06:55:02;12.38;;;6.28;;
71715;SDS011;59568;52.128;5.434;2023-03-01T06:57:28;12.85;;;6.57;;
71715;SDS011;59568;52.128;5.434;2023-03-01T06:59:55;13.57;;;6.80;;
71715;SDS011;59568;52.128;5.434;2023-03-01T07:02:22;14.18;;;7.03;;
71715;SDS011;59568;52.128;5.434;2023-03-01T07:04:50;13.17;;;7.43;;
71715;SDS011;59568;52.128;5.434;2023-03-01T07:07:17;12.75;;;6.50;;
71715;SDS011;59568;52.128;5.434;2023-03-01T07:09:45;12.13;;;7.75;;
71715;SDS011;59568;52.128;5.434;2023-03-01T07:12:12;13.43;;;6.88;;
71715;SDS011;59568;52.128;5.434;2023-03-01T07:14:38;11.10;;;6.63;;
71715;SDS011;59568;52.128;5.434;2023-03-01T07:17:07;11.67;;;6.40;;
71715;SDS011;59568;52.128;5.434;2023-03-01T07:19:34;14.63;;;7.28;;
71715;SDS011;59568;52.128;5.434;2023-03-01T07:22:01;14.25;;;7.22;;
71715;SDS011;59568;52.128;5.434;2023-03-01T07:24:30;12.45;;;7.25;;
71715;SDS011;59568;52.128;5.434;2023-03-01T07:26:57;13.20;;;6.15;;
71715;SDS011;59568;52.128;5.434;2023-03-01T07:29:23;12.80;;;6.23;;
71715;SDS011;59568;52.128;5.434;2023-03-01T07:31:50;12.77;;;7.15;;
71715;SDS011;59568;52.128;5.434;2023-03-01T07:34:17;12.50;;;7.50;;
71715;SDS011;59568;52.128;5.434;2023-03-01T07:36:44;13.02;;;8.57;;
71715;SDS011;59568;52.128;5.434;2023-03-01T07:39:11;14.15;;;7.95;;
71715;SDS011;59568;52.128;5.434;2023-03-01T07:41:38;15.83;;;7.70;;
71715;SDS011;59568;52.128;5.434;2023-03-01T07:44:06;14.43;;;8.00;;
71715;SDS011;59568;52.128;5.434;2023-03-01T07:46:32;18.00;;;8.55;;
71715;SDS011;59568;52.128;5.434;2023-03-01T07:48:59;18.42;;;8.45;;
71715;SDS011;59568;52.128;5.434;2023-03-01T07:51:26;15.90;;;8.45;;
71715;SDS011;59568;52.128;5.434;2023-03-01T07:53:52;14.73;;;7.53;;
71715;SDS011;59568;52.128;5.434;2023-03-01T07:56:19;18.10;;;8.02;;
71715;SDS011;59568;52.128;5.434;2023-03-01T07:58:47;14.82;;;7.47;;
71715;SDS011;59568;52.128;5.434;2023-03-01T08:01:17;15.95;;;7.82;;
71715;SDS011;59568;52.128;5.434;2023-03-01T08:03:46;14.02;;;8.52;;
71715;SDS011;59568;52.128;5.434;2023-03-01T08:06:13;12.10;;;6.27;;
71715;SDS011;59568;52.128;5.434;2023-03-01T08:08:42;12.32;;;6.60;;
71715;SDS011;59568;52.128;5.434;2023-03-01T08:11:12;12.65;;;6.78;;
71715;SDS011;59568;52.128;5.434;2023-03-01T08:13:40;12.93;;;7.35;;
71715;SDS011;59568;52.128;5.434;2023-03-01T08:16:09;10.75;;;6.35;;
71715;SDS011;59568;52.128;5.434;2023-03-01T08:18:38;10.43;;;5.27;;
71715;SDS011;59568;52.128;5.434;2023-03-01T08:21:09;10.27;;;5.57;;
71715;SDS011;59568;52.128;5.434;2023-03-01T08:23:40;9.70;;;5.95;;
71715;SDS011;59568;52.128;5.434;2023-03-01T08:28:43;9.18;;;5.00;;
71715;SDS011;59568;52.128;5.434;2023-03-01T08:31:15;9.70;;;4.97;;
71715;SDS011;59568;52.128;5.434;2023-03-01T08:33:50;10.63;;;5.88;;
71715;SDS011;59568;52.128;5.434;2023-03-01T08:36:28;9.68;;;5.53;;
71715;SDS011;59568;52.128;5.434;2023-03-01T08:38:57;11.95;;;5.88;;
71715;SDS011;59568;52.128;5.434;2023-03-01T08:41:24;11.23;;;5.35;;
71715;SDS011;59568;52.128;5.434;2023-03-01T08:43:51;10.60;;;5.53;;
71715;SDS011;59568;52.128;5.434;2023-03-01T08:46:20;10.25;;;5.97;;
71715;SDS011;59568;52.128;5.434;2023-03-01T08:48:48;11.02;;;5.70;;
71715;SDS011;59568;52.128;5.434;2023-03-01T08:51:18;9.80;;;6.20;;
71715;SDS011;59568;52.128;5.434;2023-03-01T08:53:48;8.25;;;5.07;;
71715;SDS011;59568;52.128;5.434;2023-03-01T08:56:15;7.33;;;4.60;;
71715;SDS011;59568;52.128;5.434;2023-03-01T08:58:43;9.05;;;6.05;;
71715;SDS011;59568;52.128;5.434;2023-03-01T09:01:12;7.72;;;4.57;;
71715;SDS011;59568;52.128;5.434;2023-03-01T09:03:41;9.55;;;4.82;;
71715;SDS011;59568;52.128;5.434;2023-03-01T09:06:08;12.30;;;5.00;;
71715;SDS011;59568;52.128;5.434;2023-03-01T09:08:40;10.00;;;5.00;;
71715;SDS011;59568;52.128;5.434;2023-03-01T09:11:09;9.25;;;4.68;;
71715;SDS011;59568;52.128;5.434;2023-03-01T09:13:38;9.82;;;4.35;;
71715;SDS011;59568;52.128;5.434;2023-03-01T09:16:10;8.10;;;4.30;;
71715;SDS011;59568;52.128;5.434;2023-03-01T09:18:41;9.50;;;4.38;;
71715;SDS011;59568;52.128;5.434;2023-03-01T09:21:08;7.47;;;4.30;;
71715;SDS011;59568;52.128;5.434;2023-03-01T09:23:41;7.55;;;4.03;;
71715;SDS011;59568;52.128;5.434;2023-03-01T09:26:16;7.32;;;4.10;;
71715;SDS011;59568;52.128;5.434;2023-03-01T09:28:48;7.55;;;4.20;;
71715;SDS011;59568;52.128;5.434;2023-03-01T09:31:17;7.70;;;4.03;;
71715;SDS011;59568;52.128;5.434;2023-03-01T09:33:45;7.77;;;3.97;;
71715;SDS011;59568;52.128;5.434;2023-03-01T09:36:15;7.57;;;3.90;;
71715;SDS011;59568;52.128;5.434;2023-03-01T09:38:44;8.00;;;3.65;;
71715;SDS011;59568;52.128;5.434;2023-03-01T09:46:57;6.57;;;3.67;;
71715;SDS011;59568;52.128;5.434;2023-03-01T09:49:31;4.75;;;2.70;;
71715;SDS011;59568;52.128;5.434;2023-03-01T09:54:56;6.53;;;3.00;;
71715;SDS011;59568;52.128;5.434;2023-03-01T09:57:27;4.55;;;2.75;;
71715;SDS011;59568;52.128;5.434;2023-03-01T10:02:38;6.43;;;2.90;;
71715;SDS011;59568;52.128;5.434;2023-03-01T10:07:48;5.22;;;2.72;;
71715;SDS011;59568;52.128;5.434;2023-03-01T10:10:32;5.35;;;2.42;;
71715;SDS011;59568;52.128;5.434;2023-03-01T10:13:04;4.53;;;2.47;;
71715;SDS011;59568;52.128;5.434;2023-03-01T10:16:05;5.50;;;2.70;;
71715;SDS011;59568;52.128;5.434;2023-03-01T10:18:41;6.57;;;2.90;;
71715;SDS011;59568;52.128;5.434;2023-03-01T10:23:43;5.38;;;2.60;;
71715;SDS011;59568;52.128;5.434;2023-03-01T10:28:59;5.45;;;2.40;;
71715;SDS011;59568;52.128;5.434;2023-03-01T10:31:46;4.60;;;1.92;;
71715;SDS011;59568;52.128;5.434;2023-03-01T10:34:18;6.75;;;2.25;;
71715;SDS011;59568;52.128;5.434;2023-03-01T10:36:48;4.15;;;2.25;;
71715;SDS011;59568;52.128;5.434;2023-03-01T10:39:21;4.17;;;2.10;;
71715;SDS011;59568;52.128;5.434;2023-03-01T10:47:14;4.47;;;1.70;;
71715;SDS011;59568;52.128;5.434;2023-03-01T10:52:20;3.50;;;1.60;;
71715;SDS011;59568;52.128;5.434;2023-03-01T10:54:53;4.57;;;1.38;;
71715;SDS011;59568;52.128;5.434;2023-03-01T10:58:05;4.13;;;1.50;;
71715;SDS011;59568;52.128;5.434;2023-03-01T11:00:18;3.90;;;1.60;;
71715;SDS011;59568;52.128;5.434;2023-03-01T11:02:48;3.38;;;1.35;;
71715;SDS011;59568;52.128;5.434;2023-03-01T11:05:19;4.37;;;1.73;;
71715;SDS011;59568;52.128;5.434;2023-03-01T11:07:52;3.42;;;1.40;;
71715;SDS011;59568;52.128;5.434;2023-03-01T11:10:26;3.97;;;1.67;;
71715;SDS011;59568;52.128;5.434;2023-03-01T11:13:05;3.78;;;1.67;;
71715;SDS011;59568;52.128;5.434;2023-03-01T11:15:34;3.53;;;1.38;;
71715;SDS011;59568;52.128;5.434;2023-03-01T11:18:01;3.23;;;1.50;;
71715;SDS011;59568;52.128;5.434;2023-03-01T11:20:39;2.17;;;1.42;;
71715;SDS011;59568;52.128;5.434;2023-03-01T11:23:10;4.13;;;1.63;;
71715;SDS011;59568;52.128;5.434;2023-03-01T11:25:42;3.53;;;1.55;;
71715;SDS011;59568;52.128;5.434;2023-03-01T11:28:18;3.65;;;1.88;;
71715;SDS011;59568;52.128;5.434;2023-03-01T11:33:44;3.88;;;1.67;;
71715;SDS011;59568;52.128;5.434;2023-03-01T11:44:52;4.73;;;1.40;;
71715;SDS011;59568;52.128;5.434;2023-03-01T11:47:28;3.45;;;1.52;;
71715;SDS011;59568;52.128;5.434;2023-03-01T11:50:11;4.45;;;1.45;;
71715;SDS011;59568;52.128;5.434;2023-03-01T12:01:13;4.05;;;2.22;;
71715;SDS011;59568;52.128;5.434;2023-03-01T12:06:38;5.22;;;1.95;;
71715;SDS011;59568;52.128;5.434;2023-03-01T12:18:22;5.22;;;1.85;;
71715;SDS011;59568;52.128;5.434;2023-03-01T12:21:05;5.55;;;1.90;;
71715;SDS011;59568;52.128;5.434;2023-03-01T12:23:54;5.78;;;2.22;;
71715;SDS011;59568;52.128;5.434;2023-03-01T12:26:52;3.23;;;1.87;;
71715;SDS011;59568;52.128;5.434;2023-03-01T12:35:03;4.28;;;1.50;;
71715;SDS011;59568;52.128;5.434;2023-03-01T12:37:47;4.43;;;2.42;;
71715;SDS011;59568;52.128;5.434;2023-03-01T12:40:41;3.97;;;1.70;;
71715;SDS011;59568;52.128;5.434;2023-03-01T12:49:10;3.80;;;1.90;;
71715;SDS011;59568;52.128;5.434;2023-03-01T12:51:39;3.88;;;2.08;;
71715;SDS011;59568;52.128;5.434;2023-03-01T12:54:16;4.37;;;2.00;;
71715;SDS011;59568;52.128;5.434;2023-03-01T12:56:46;3.55;;;2.10;;
71715;SDS011;59568;52.128;5.434;2023-03-01T13:04:23;3.03;;;1.80;;
71715;SDS011;59568;52.128;5.434;2023-03-01T13:12:03;4.47;;;2.10;;
71715;SDS011;59568;52.128;5.434;2023-03-01T13:14:50;5.07;;;1.85;;
71715;SDS011;59568;52.128;5.434;2023-03-01T13:17:30;2.72;;;1.98;;
71715;SDS011;59568;52.128;5.434;2023-03-01T13:19:59;6.07;;;2.00;;
71715;SDS011;59568;52.128;5.434;2023-03-01T13:22:29;4.22;;;1.67;;
71715;SDS011;59568;52.128;5.434;2023-03-01T13:25:02;3.88;;;1.77;;
71715;SDS011;59568;52.128;5.434;2023-03-01T13:27:39;5.35;;;1.75;;
71715;SDS011;59568;52.128;5.434;2023-03-01T13:30:37;4.30;;;2.22;;
71715;SDS011;59568;52.128;5.434;2023-03-01T13:33:46;3.47;;;1.83;;
71715;SDS011;59568;52.128;5.434;2023-03-01T13:41:50;3.53;;;1.77;;
71715;SDS011;59568;52.128;5.434;2023-03-01T13:49:45;4.55;;;2.15;;
71715;SDS011;59568;52.128;5.434;2023-03-01T13:55:23;4.22;;;1.85;;
71715;SDS011;59568;52.128;5.434;2023-03-01T13:57:54;3.80;;;1.77;;
71715;SDS011;59568;52.128;5.434;2023-03-01T14:03:11;3.67;;;1.70;;
71715;SDS011;59568;52.128;5.434;2023-03-01T14:06:01;4.20;;;1.65;;
71715;SDS011;59568;52.128;5.434;2023-03-01T14:08:42;4.47;;;1.80;;
71715;SDS011;59568;52.128;5.434;2023-03-01T14:19:17;5.03;;;1.92;;
71715;SDS011;59568;52.128;5.434;2023-03-01T14:22:06;5.00;;;1.85;;
71715;SDS011;59568;52.128;5.434;2023-03-01T14:24:48;3.28;;;1.60;;
71715;SDS011;59568;52.128;5.434;2023-03-01T14:27:18;3.53;;;1.40;;
71715;SDS011;59568;52.128;5.434;2023-03-01T14:29:58;4.05;;;2.00;;
71715;SDS011;59568;52.128;5.434;2023-03-01T14:34:55;4.25;;;1.75;;
71715;SDS011;59568;52.128;5.434;2023-03-01T14:39:53;3.40;;;2.00;;
71715;SDS011;59568;52.128;5.434;2023-03-01T14:42:21;3.95;;;1.98;;
71715;SDS011;59568;52.128;5.434;2023-03-01T14:44:50;4.45;;;2.35;;
71715;SDS011;59568;52.128;5.434;2023-03-01T14:47:40;6.05;;;2.15;;
71715;SDS011;59568;52.128;5.434;2023-03-01T14:50:25;4.38;;;2.00;;
71715;SDS011;59568;52.128;5.434;2023-03-01T14:52:55;4.37;;;1.93;;
71715;SDS011;59568;52.128;5.434;2023-03-01T14:55:35;3.70;;;1.70;;
71715;SDS011;59568;52.128;5.434;2023-03-01T14:58:05;3.90;;;1.63;;
71715;SDS011;59568;52.128;5.434;2023-03-01T15:00:35;3.28;;;1.85;;
71715;SDS011;59568;52.128;5.434;2023-03-01T15:03:13;5.07;;;2.03;;
71715;SDS011;59568;52.128;5.434;2023-03-01T15:05:46;4.40;;;2.23;;
71715;SDS011;59568;52.128;5.434;2023-03-01T15:08:20;4.78;;;2.28;;
71715;SDS011;59568;52.128;5.434;2023-03-01T15:10:57;6.22;;;2.13;;
71715;SDS011;59568;52.128;5.434;2023-03-01T15:13:26;3.92;;;2.20;;
71715;SDS011;59568;52.128;5.434;2023-03-01T15:16:04;3.95;;;1.63;;
71715;SDS011;59568;52.128;5.434;2023-03-01T15:18:37;3.30;;;1.90;;
71715;SDS011;59568;52.128;5.434;2023-03-01T15:21:23;5.05;;;2.00;;
71715;SDS011;59568;52.128;5.434;2023-03-01T15:23:54;4.30;;;1.88;;
71715;SDS011;59568;52.128;5.434;2023-03-01T15:26:30;4.45;;;1.85;;
71715;SDS011;59568;52.128;5.434;2023-03-01T15:29:01;7.40;;;2.25;;
71715;SDS011;59568;52.128;5.434;2023-03-01T15:31:32;3.83;;;1.90;;
71715;SDS011;59568;52.128;5.434;2023-03-01T15:34:37;3.78;;;1.92;;
71715;SDS011;59568;52.128;5.434;2023-03-01T15:36:59;4.72;;;2.05;;
71715;SDS011;59568;52.128;5.434;2023-03-01T15:42:05;4.05;;;2.03;;
71715;SDS011;59568;52.128;5.434;2023-03-01T15:44:37;4.27;;;1.87;;
71715;SDS011;59568;52.128;5.434;2023-03-01T15:47:23;5.03;;;2.20;;
71715;SDS011;59568;52.128;5.434;2023-03-01T15:49:52;3.58;;;2.08;;
71715;SDS011;59568;52.128;5.434;2023-03-01T15:52:39;5.88;;;1.80;;
71715;SDS011;59568;52.128;5.434;2023-03-01T15:55:18;4.47;;;1.98;;
71715;SDS011;59568;52.128;5.434;2023-03-01T15:57:49;5.70;;;2.43;;
71715;SDS011;59568;52.128;5.434;2023-03-01T16:00:25;5.68;;;2.72;;
71715;SDS011;59568;52.128;5.434;2023-03-01T16:02:52;4.70;;;2.40;;
71715;SDS011;59568;52.128;5.434;2023-03-01T16:05:23;4.22;;;2.30;;
71715;SDS011;59568;52.128;5.434;2023-03-01T16:07:52;4.15;;;2.30;;
71715;SDS011;59568;52.128;5.434;2023-03-01T16:10:19;5.37;;;2.40;;
71715;SDS011;59568;52.128;5.434;2023-03-01T16:12:46;5.60;;;2.95;;
71715;SDS011;59568;52.128;5.434;2023-03-01T16:15:19;10.32;;;2.50;;
71715;SDS011;59568;52.128;5.434;2023-03-01T16:17:58;4.38;;;2.50;;
71715;SDS011;59568;52.128;5.434;2023-03-01T16:20:24;5.78;;;2.55;;
71715;SDS011;59568;52.128;5.434;2023-03-01T16:22:57;5.77;;;2.40;;
71715;SDS011;59568;52.128;5.434;2023-03-01T16:25:28;6.43;;;2.53;;
71715;SDS011;59568;52.128;5.434;2023-03-01T16:27:55;4.45;;;2.33;;
71715;SDS011;59568;52.128;5.434;2023-03-01T16:30:24;4.72;;;2.20;;
71715;SDS011;59568;52.128;5.434;2023-03-01T16:32:51;6.38;;;2.20;;
71715;SDS011;59568;52.128;5.434;2023-03-01T16:35:19;4.70;;;2.47;;
71715;SDS011;59568;52.128;5.434;2023-03-01T16:37:47;4.30;;;2.30;;
71715;SDS011;59568;52.128;5.434;2023-03-01T16:40:21;9.40;;;2.40;;
71715;SDS011;59568;52.128;5.434;2023-03-01T16:42:53;5.55;;;2.45;;
71715;SDS011;59568;52.128;5.434;2023-03-01T16:45:25;6.70;;;2.90;;
71715;SDS011;59568;52.128;5.434;2023-03-01T16:48:00;4.97;;;2.10;;
71715;SDS011;59568;52.128;5.434;2023-03-01T16:50:26;8.00;;;2.40;;
71715;SDS011;59568;52.128;5.434;2023-03-01T16:52:53;4.30;;;2.05;;
71715;SDS011;59568;52.128;5.434;2023-03-01T16:55:19;5.65;;;2.92;;
71715;SDS011;59568;52.128;5.434;2023-03-01T16:57:46;6.30;;;2.97;;
71715;SDS011;59568;52.128;5.434;2023-03-01T17:00:15;4.07;;;2.30;;
71715;SDS011;59568;52.128;5.434;2023-03-01T17:02:42;5.85;;;2.50;;
71715;SDS011;59568;52.128;5.434;2023-03-01T17:05:08;6.13;;;2.40;;
71715;SDS011;59568;52.128;5.434;2023-03-01T17:07:37;5.85;;;2.53;;